createdAt,value
2023-02-05T00:00:44.925Z,99502.44
2023-02-05T00:03:11.565Z,99496.06
2023-02-05T00:05:38.207Z,99495.66
2023-02-05T00:08:05.152Z,99494.50
2023-02-05T00:10:31.783Z,99498.69
2023-02-05T00:12:58.416Z,99498.94
2023-02-05T00:15:24.979Z,99494.50
2023-02-05T00:17:51.624Z,99494.44
2023-02-05T00:20:18.510Z,99493.53
2023-02-05T00:22:45.150Z,99487.72
2023-02-05T00:25:11.783Z,99497.41
2023-02-05T00:27:38.485Z,99488.25
2023-02-05T00:30:05.852Z,99482.81
2023-02-05T00:32:32.470Z,99491.81
2023-02-05T00:34:59.108Z,99493.53
2023-02-05T00:37:25.744Z,99495.75
2023-02-05T00:39:52.349Z,99505.44
2023-02-05T00:42:19.019Z,99493.94
2023-02-05T00:44:45.666Z,99503.94
2023-02-05T00:47:12.252Z,99502.53
2023-02-05T00:49:39.430Z,99502.31
2023-02-05T00:52:06.108Z,99506.56
2023-02-05T00:54:32.746Z,99507.31
2023-02-05T00:56:59.385Z,99507.31
2023-02-05T00:59:26.113Z,99507.56
2023-02-05T01:01:52.832Z,99505.56
2023-02-05T01:04:19.503Z,99504.75
2023-02-05T01:06:46.094Z,99498.25
2023-02-05T01:09:12.828Z,99488.38
2023-02-05T01:11:39.449Z,99496.44
2023-02-05T01:14:06.079Z,99497.00
2023-02-05T01:16:32.702Z,99497.69
2023-02-05T01:18:59.831Z,99495.75
2023-02-05T01:21:26.449Z,99499.38
2023-02-05T01:23:54.556Z,99495.19
2023-02-05T01:26:21.288Z,99499.88
2023-02-05T01:28:48.469Z,99485.81
2023-02-05T01:31:15.234Z,99492.94
2023-02-05T01:33:41.954Z,99488.75
2023-02-05T01:36:09.133Z,99490.41
2023-02-05T01:38:35.748Z,99487.09
2023-02-05T01:41:02.421Z,99487.25
2023-02-05T01:43:29.102Z,99479.56
2023-02-05T01:46:19.230Z,99482.00
2023-02-05T01:48:50.758Z,99481.31
2023-02-05T01:51:17.781Z,99475.06
2023-02-05T01:53:46.353Z,99477.63
2023-02-05T01:56:17.464Z,99472.50
2023-02-05T01:58:49.619Z,99469.28
2023-02-05T02:01:16.448Z,99474.06
2023-02-05T02:03:43.611Z,99470.75
2023-02-05T02:06:10.214Z,99468.91
2023-02-05T02:08:37.016Z,99466.72
2023-02-05T02:11:07.203Z,99469.94
2023-02-05T02:13:36.870Z,99470.69
2023-02-05T02:16:05.238Z,99473.19
2023-02-05T02:18:34.816Z,99480.69
2023-02-05T02:21:26.332Z,99471.38
2023-02-05T02:24:18.908Z,99479.25
2023-02-05T02:27:30.362Z,99485.13
2023-02-05T02:30:20.894Z,99495.38
2023-02-05T02:33:14.706Z,99490.69
2023-02-05T02:36:13.699Z,99496.13
2023-02-05T02:38:42.487Z,99491.31
2023-02-05T02:41:22.362Z,99485.13
2023-02-05T02:43:56.673Z,99493.53
2023-02-05T02:46:34.636Z,99491.25
2023-02-05T02:49:06.138Z,99493.19
2023-02-05T02:51:36.612Z,99499.13
2023-02-05T02:54:08.067Z,99493.56
2023-02-05T02:56:39.365Z,99498.44
2023-02-05T02:59:10.872Z,99504.19
2023-02-05T03:01:42.604Z,99502.16
2023-02-05T03:04:19.837Z,99492.78
2023-02-05T03:06:50.699Z,99502.97
2023-02-05T03:09:26.300Z,99497.63
2023-02-05T03:11:53.002Z,99496.13
2023-02-05T03:14:19.728Z,99493.69
2023-02-05T03:16:46.479Z,99494.88
2023-02-05T03:19:13.373Z,99497.69
2023-02-05T03:21:43.546Z,99495.94
2023-02-05T03:24:10.407Z,99490.06
2023-02-05T03:26:38.355Z,99490.78
2023-02-05T03:29:13.189Z,99475.25
2023-02-05T03:32:01.438Z,99473.88
2023-02-05T03:35:09.311Z,99469.91
2023-02-05T03:38:21.359Z,99460.84
2023-02-05T03:41:44.424Z,99463.69
2023-02-05T03:44:25.954Z,99459.28
2023-02-05T03:46:58.874Z,99461.56
2023-02-05T03:49:53.633Z,99462.59
2023-02-05T03:52:31.075Z,99454.09
2023-02-05T03:55:15.562Z,99453.72
2023-02-05T03:57:53.971Z,99447.78
2023-02-05T04:00:20.819Z,99446.16
2023-02-05T04:02:47.442Z,99434.44
2023-02-05T04:05:14.079Z,99436.81
2023-02-05T04:07:40.826Z,99435.50
2023-02-05T04:10:07.683Z,99431.56
2023-02-05T04:12:34.295Z,99435.94
2023-02-05T04:15:01.036Z,99431.25
2023-02-05T04:17:27.665Z,99425.56
2023-02-05T04:19:54.297Z,99426.69
2023-02-05T04:22:20.908Z,99428.59
2023-02-05T04:24:47.542Z,99431.72
2023-02-05T04:27:14.221Z,99430.88
2023-02-05T04:29:40.842Z,99430.19
2023-02-05T04:32:07.468Z,99432.66
2023-02-05T04:34:34.166Z,99433.84
2023-02-05T04:37:00.860Z,99435.16
2023-02-05T04:39:27.626Z,99442.91
2023-02-05T04:41:54.271Z,99444.28
2023-02-05T04:44:20.944Z,99450.19
2023-02-05T04:46:47.628Z,99451.03
2023-02-05T04:49:14.296Z,99445.66
2023-02-05T04:51:40.944Z,99443.88
2023-02-05T04:54:07.621Z,99446.03
2023-02-05T04:56:34.282Z,99446.22
2023-02-05T04:59:01.040Z,99450.94
2023-02-05T05:01:27.710Z,99445.25
2023-02-05T05:03:54.346Z,99450.53
2023-02-05T05:06:21.230Z,99453.94
2023-02-05T05:08:47.912Z,99451.66
2023-02-05T05:11:17.504Z,99451.59
2023-02-05T05:13:44.897Z,99447.69
2023-02-05T05:16:12.820Z,99452.63
2023-02-05T05:18:40.434Z,99442.97
2023-02-05T05:21:08.114Z,99455.44
2023-02-05T05:23:35.947Z,99455.44
2023-02-05T05:26:07.529Z,99455.78
2023-02-05T05:28:34.978Z,99458.53
2023-02-05T05:31:09.948Z,99453.88
2023-02-05T05:33:37.332Z,99465.38
2023-02-05T05:36:04.725Z,99466.25
2023-02-05T05:38:31.614Z,99463.91
2023-02-05T05:41:16.908Z,99469.91
2023-02-05T05:43:46.573Z,99467.41
2023-02-05T05:46:16.773Z,99465.28
2023-02-05T05:48:43.603Z,99459.81
2023-02-05T05:51:10.223Z,99456.03
2023-02-05T05:53:36.852Z,99452.38
2023-02-05T05:56:03.774Z,99466.44
2023-02-05T05:58:30.368Z,99451.53
2023-02-05T06:00:56.978Z,99459.38
2023-02-05T06:03:24.317Z,99460.78
2023-02-05T06:05:50.937Z,99460.03
2023-02-05T06:08:17.832Z,99453.72
2023-02-05T06:10:44.543Z,99459.06
2023-02-05T06:13:11.219Z,99457.59
2023-02-05T06:15:38.291Z,99456.16
2023-02-05T06:18:05.148Z,99452.72
2023-02-05T06:20:31.767Z,99453.59
2023-02-05T06:22:58.401Z,99454.78
2023-02-05T06:25:25.075Z,99462.28
2023-02-05T06:27:52.932Z,99458.97
2023-02-05T06:30:19.611Z,99462.38
2023-02-05T06:32:46.352Z,99459.06
2023-02-05T06:35:13.042Z,99462.94
2023-02-05T06:37:47.221Z,99467.75
2023-02-05T06:40:17.958Z,99472.81
2023-02-05T06:42:45.224Z,99471.19
2023-02-05T06:45:12.101Z,99468.38
2023-02-05T06:47:38.927Z,99477.56
2023-02-05T06:50:06.731Z,99476.47
2023-02-05T06:52:33.371Z,99472.28
2023-02-05T06:55:00.030Z,99463.06
2023-02-05T06:57:26.652Z,99462.09
2023-02-05T06:59:53.256Z,99463.91
2023-02-05T07:02:20.229Z,99465.63
2023-02-05T07:04:47.163Z,99471.63
2023-02-05T07:07:15.732Z,99473.59
2023-02-05T07:09:46.737Z,99473.25
2023-02-05T07:12:19.948Z,99472.63
2023-02-05T07:14:51.400Z,99477.66
2023-02-05T07:17:22.823Z,99466.63
2023-02-05T07:19:50.997Z,99481.75
2023-02-05T07:22:17.789Z,99487.31
2023-02-05T07:24:45.501Z,99496.31
2023-02-05T07:27:34.935Z,99482.06
2023-02-05T07:30:02.647Z,99499.63
2023-02-05T07:32:29.416Z,99497.47
2023-02-05T07:34:56.178Z,99497.06
2023-02-05T07:37:22.882Z,99510.78
2023-02-05T07:39:49.499Z,99518.50
2023-02-05T07:42:16.067Z,99521.94
2023-02-05T07:44:42.730Z,99512.84
2023-02-05T07:47:09.487Z,99518.19
2023-02-05T07:49:36.085Z,99520.78
2023-02-05T07:52:02.706Z,99514.03
2023-02-05T07:54:29.369Z,99521.75
2023-02-05T07:56:56.001Z,99511.88
2023-02-05T07:59:22.604Z,99510.91
2023-02-05T08:01:49.222Z,99514.75
2023-02-05T08:04:15.872Z,99515.28
2023-02-05T08:06:43.114Z,99517.53
2023-02-05T08:09:10.976Z,99516.69
2023-02-05T08:11:37.592Z,99512.41
2023-02-05T08:14:04.183Z,99510.97
2023-02-05T08:16:30.932Z,99501.31
2023-02-05T08:18:57.588Z,99507.31
2023-02-05T08:21:24.779Z,99508.69
2023-02-05T08:23:51.450Z,99515.78
2023-02-05T08:26:18.837Z,99504.50
2023-02-05T08:28:46.086Z,99503.75
2023-02-05T08:31:15.134Z,99504.38
2023-02-05T08:33:41.951Z,99501.72
2023-02-05T08:36:09.671Z,99495.03
2023-02-05T08:38:36.702Z,99487.31
2023-02-05T08:41:12.633Z,99491.03
2023-02-05T08:43:45.474Z,99490.38
2023-02-05T08:46:14.142Z,99493.94
2023-02-05T08:48:41.182Z,99486.09
2023-02-05T08:51:10.281Z,99482.84
2023-02-05T08:53:36.857Z,99480.06
2023-02-05T08:56:05.285Z,99481.53
2023-02-05T08:58:32.659Z,99479.38
2023-02-05T09:01:04.584Z,99481.84
2023-02-05T09:03:31.790Z,99475.69
2023-02-05T09:05:59.503Z,99482.25
2023-02-05T09:08:27.400Z,99483.88
2023-02-05T09:10:54.247Z,99476.38
2023-02-05T09:13:20.871Z,99485.38
2023-02-05T09:15:48.709Z,99485.81
2023-02-05T09:18:16.603Z,99484.56
2023-02-05T09:20:45.735Z,99478.81
2023-02-05T09:23:13.612Z,99479.78
2023-02-05T09:25:41.428Z,99486.81
2023-02-05T09:28:09.899Z,99483.69
2023-02-05T09:30:38.259Z,99482.34
2023-02-05T09:33:05.007Z,99479.91
2023-02-05T09:35:32.776Z,99473.78
2023-02-05T09:38:00.195Z,99479.44
2023-02-05T09:40:44.162Z,99469.06
2023-02-05T09:43:32.041Z,99468.00
2023-02-05T09:46:10.333Z,99474.44
2023-02-05T09:48:54.839Z,99472.56
2023-02-05T09:51:33.838Z,99474.53
2023-02-05T09:54:13.528Z,99460.69
2023-02-05T09:56:41.079Z,99460.94
2023-02-05T09:59:21.606Z,99461.53
2023-02-05T10:01:52.985Z,99455.81
2023-02-05T10:04:19.909Z,99453.06
2023-02-05T10:07:10.422Z,99445.50
2023-02-05T10:10:01.959Z,99443.03
2023-02-05T10:12:57.138Z,99422.78
2023-02-05T10:15:53.340Z,99427.00
2023-02-05T10:18:38.497Z,99423.59
2023-02-05T10:21:41.339Z,99418.63
2023-02-05T10:24:47.537Z,99410.41
2023-02-05T10:27:47.746Z,99409.56
2023-02-05T10:30:38.444Z,99395.66
2023-02-05T10:33:27.839Z,99392.81
2023-02-05T10:36:01.624Z,99391.34
2023-02-05T10:38:33.751Z,99392.69
2023-02-05T10:41:38.184Z,99394.53
2023-02-05T10:44:33.051Z,99396.16
2023-02-05T10:47:18.300Z,99384.50
2023-02-05T10:49:47.990Z,99387.34
2023-02-05T10:52:16.200Z,99380.78
2023-02-05T10:54:45.554Z,99378.66
2023-02-05T10:57:14.922Z,99372.53
2023-02-05T11:00:02.166Z,99378.09
2023-02-05T11:02:36.248Z,99369.88
2023-02-05T11:05:08.310Z,99362.97
2023-02-05T11:07:41.625Z,99362.06
2023-02-05T11:10:21.186Z,99351.16
2023-02-05T11:12:53.962Z,99349.94
2023-02-05T11:15:28.867Z,99357.75
2023-02-05T11:18:04.536Z,99355.34
2023-02-05T11:20:34.114Z,99352.06
2023-02-05T11:23:24.445Z,99342.03
2023-02-05T11:26:07.008Z,99343.97
2023-02-05T11:28:36.483Z,99343.97
2023-02-05T11:31:19.551Z,99344.88
2023-02-05T11:33:46.825Z,99344.72
2023-02-05T11:36:24.974Z,99324.94
2023-02-05T11:38:57.115Z,99330.19
2023-02-05T11:41:31.305Z,99331.22
2023-02-05T11:44:00.881Z,99320.00
2023-02-05T11:46:31.418Z,99321.50
2023-02-05T11:49:03.289Z,99314.31
2023-02-05T11:51:43.396Z,99317.03
2023-02-05T11:54:21.546Z,99315.38
2023-02-05T11:57:07.800Z,99309.22
2023-02-05T11:59:35.947Z,99313.25
2023-02-05T12:02:34.162Z,99301.44
2023-02-05T12:05:28.864Z,99305.47
2023-02-05T12:08:30.271Z,99302.13
2023-02-05T12:11:55.618Z,99301.63
2023-02-05T12:15:02.651Z,99293.88
2023-02-05T12:17:59.074Z,99294.13
2023-02-05T12:20:31.971Z,99290.09
2023-02-05T12:23:31.053Z,99288.25
2023-02-05T12:26:09.364Z,99275.81
2023-02-05T12:29:01.477Z,99285.34
2023-02-05T12:32:08.578Z,99280.13
2023-02-05T12:34:37.894Z,99285.59
2023-02-05T12:37:40.870Z,99277.44
2023-02-05T12:40:17.051Z,99281.91
2023-02-05T12:43:12.992Z,99283.88
2023-02-05T12:46:26.137Z,99293.00
2023-02-05T12:49:37.293Z,99283.47
2023-02-05T12:52:51.086Z,99282.91
2023-02-05T12:55:40.987Z,99266.78
2023-02-05T12:58:11.428Z,99270.56
2023-02-05T13:00:43.885Z,99269.69
2023-02-05T13:03:16.340Z,99261.31
2023-02-05T13:05:54.931Z,99264.63
2023-02-05T13:08:30.146Z,99265.75
2023-02-05T13:11:03.583Z,99264.50
2023-02-05T13:13:47.949Z,99260.91
2023-02-05T13:16:18.246Z,99264.16
2023-02-05T13:19:00.656Z,99264.00
2023-02-05T13:21:46.571Z,99255.81
2023-02-05T13:24:48.822Z,99257.94
2023-02-05T13:27:50.900Z,99261.63
2023-02-05T13:30:23.961Z,99253.53
2023-02-05T13:32:55.636Z,99260.81
2023-02-05T13:35:23.849Z,99250.63
2023-02-05T13:38:45.863Z,99263.97
2023-02-05T13:41:46.086Z,99262.78
2023-02-05T13:44:51.071Z,99242.09
2023-02-05T13:48:05.170Z,99242.25
2023-02-05T13:50:48.811Z,99253.31
2023-02-05T13:53:29.018Z,99254.28
2023-02-05T13:59:16.019Z,99255.50
2023-02-05T14:02:01.252Z,99263.34
2023-02-05T14:04:39.548Z,99263.31
2023-02-05T14:07:13.280Z,99255.09
2023-02-05T14:09:49.504Z,99260.22
2023-02-05T14:12:48.503Z,99261.63
2023-02-05T14:15:15.345Z,99269.09
2023-02-05T14:17:54.385Z,99274.03
2023-02-05T14:20:32.605Z,99268.63
2023-02-05T14:23:01.154Z,99259.75
2023-02-05T14:25:41.634Z,99260.97
2023-02-05T14:28:44.034Z,99256.97
2023-02-05T14:31:47.818Z,99254.09
2023-02-05T14:34:59.703Z,99260.81
2023-02-05T14:37:39.593Z,99258.69
2023-02-05T14:40:30.707Z,99253.72
2023-02-05T14:43:20.733Z,99248.56
2023-02-05T14:45:52.168Z,99271.50
2023-02-05T14:48:22.856Z,99270.25
2023-02-05T14:51:01.391Z,99275.28
2023-02-05T14:53:29.883Z,99278.75
2023-02-05T14:55:57.052Z,99280.63
2023-02-05T14:58:33.024Z,99274.50
2023-02-05T15:01:54.626Z,99275.25
2023-02-05T15:04:52.818Z,99270.59
2023-02-05T15:07:25.841Z,99269.13
2023-02-05T15:10:05.636Z,99267.91
2023-02-05T15:12:55.027Z,99275.09
2023-02-05T15:15:31.568Z,99269.25
2023-02-05T15:18:15.526Z,99276.88
2023-02-05T15:20:47.337Z,99268.34
2023-02-05T15:23:35.219Z,99267.00
2023-02-05T15:26:07.040Z,99263.41
2023-02-05T15:28:45.498Z,99278.53
2023-02-05T15:31:21.647Z,99281.84
2023-02-05T15:34:02.094Z,99268.97
2023-02-05T15:36:36.043Z,99277.84
2023-02-05T15:39:14.378Z,99271.09
2023-02-05T15:41:44.191Z,99277.09
2023-02-05T15:44:22.544Z,99276.06
2023-02-05T15:46:49.916Z,99269.81
2023-02-05T15:49:16.681Z,99274.72
2023-02-05T15:51:46.430Z,99268.59
2023-02-05T15:54:20.088Z,99263.69
2023-02-05T15:56:51.419Z,99269.66
2023-02-05T15:59:28.692Z,99270.41
2023-02-05T16:02:20.937Z,99272.81
2023-02-05T16:05:07.461Z,99275.66
2023-02-05T16:07:41.946Z,99279.38
2023-02-05T16:10:51.198Z,99289.44
2023-02-05T16:13:18.224Z,99280.00
2023-02-05T16:16:08.172Z,99281.50
2023-02-05T16:18:47.069Z,99289.59
2023-02-05T16:21:23.961Z,99274.03
2023-02-05T16:23:57.344Z,99280.16
2023-02-05T16:26:27.883Z,99273.44
2023-02-05T16:29:07.660Z,99273.88
2023-02-05T16:31:37.629Z,99275.38
2023-02-05T16:34:19.131Z,99273.56
2023-02-05T16:36:48.797Z,99269.84
2023-02-05T16:39:27.554Z,99276.13
2023-02-05T16:42:06.720Z,99279.56
2023-02-05T16:44:39.819Z,99279.41
2023-02-05T16:47:18.404Z,99281.34
2023-02-05T16:49:47.587Z,99285.53
2023-02-05T16:52:34.337Z,99287.03
2023-02-05T16:55:45.827Z,99300.91
2023-02-05T16:58:23.523Z,99309.00
2023-02-05T17:00:58.869Z,99312.84
2023-02-05T17:03:27.271Z,99311.09
2023-02-05T17:06:00.563Z,99316.00
2023-02-05T17:08:30.977Z,99314.81
2023-02-05T17:11:00.804Z,99313.31
2023-02-05T17:13:42.142Z,99318.41
2023-02-05T17:16:41.816Z,99313.03
2023-02-05T17:19:29.888Z,99307.47
2023-02-05T17:22:19.769Z,99326.59
2023-02-05T17:24:49.172Z,99320.28
2023-02-05T17:27:29.888Z,99322.81
2023-02-05T17:29:58.387Z,99318.03
2023-02-05T17:32:25.902Z,99322.97
2023-02-05T17:34:52.624Z,99324.28
2023-02-05T17:37:19.545Z,99329.50
2023-02-05T17:39:46.233Z,99326.06
2023-02-05T17:42:21.978Z,99320.97
2023-02-05T17:44:48.937Z,99328.72
2023-02-05T17:47:15.782Z,99327.50
2023-02-05T17:49:42.541Z,99323.94
2023-02-05T17:52:10.130Z,99324.50
2023-02-05T17:54:36.800Z,99332.13
2023-02-05T17:57:20.836Z,99329.69
2023-02-05T17:59:48.912Z,99324.41
2023-02-05T18:02:16.562Z,99315.78
2023-02-05T18:04:45.027Z,99315.06
2023-02-05T18:07:29.592Z,99314.53
2023-02-05T18:09:56.400Z,99322.19
2023-02-05T18:12:23.019Z,99318.91
2023-02-05T18:14:50.393Z,99313.25
2023-02-05T18:17:17.291Z,99316.13
2023-02-05T18:19:43.888Z,99308.81
2023-02-05T18:22:10.579Z,99315.88
2023-02-05T18:24:39.097Z,99309.69
2023-02-05T18:27:08.203Z,99311.25
2023-02-05T18:29:35.623Z,99315.06
2023-02-05T18:32:02.987Z,99310.34
2023-02-05T18:34:29.601Z,99316.31
2023-02-05T18:36:56.307Z,99323.69
2023-02-05T18:39:28.346Z,99325.28
2023-02-05T18:41:58.006Z,99328.38
2023-02-05T18:44:25.992Z,99323.47
2023-02-05T18:46:53.142Z,99322.84
2023-02-05T18:49:20.205Z,99324.53
2023-02-05T18:51:46.793Z,99330.44
2023-02-05T18:54:13.359Z,99336.69
2023-02-05T18:56:40.148Z,99338.34
2023-02-05T18:59:08.412Z,99340.56
2023-02-05T19:01:38.992Z,99345.63
2023-02-05T19:04:14.011Z,99354.06
2023-02-05T19:06:45.602Z,99353.81
2023-02-05T19:09:12.219Z,99364.56
2023-02-05T19:11:41.817Z,99357.91
2023-02-05T19:14:11.900Z,99359.31
2023-02-05T19:16:40.124Z,99358.13
2023-02-05T19:19:07.007Z,99359.59
2023-02-05T19:21:34.099Z,99357.81
2023-02-05T19:24:05.469Z,99358.13
2023-02-05T19:26:34.306Z,99359.44
2023-02-05T19:29:05.074Z,99359.31
2023-02-05T19:31:33.957Z,99358.25
2023-02-05T19:34:01.482Z,99353.50
2023-02-05T19:36:29.707Z,99361.00
2023-02-05T19:38:56.810Z,99358.25
2023-02-05T19:41:26.394Z,99356.59
2023-02-05T19:43:56.105Z,99356.81
2023-02-05T19:46:25.671Z,99360.75
2023-02-05T19:48:53.348Z,99370.00
2023-02-05T19:51:20.587Z,99372.22
2023-02-05T19:53:47.824Z,99357.22
2023-02-05T19:56:20.199Z,99367.72
2023-02-05T19:58:49.207Z,99378.78
2023-02-05T20:01:27.209Z,99379.84
2023-02-05T20:03:59.296Z,99380.41
2023-02-05T20:06:29.246Z,99371.09
2023-02-05T20:08:56.890Z,99358.63
2023-02-05T20:11:23.555Z,99360.22
2023-02-05T20:13:50.399Z,99367.31
2023-02-05T20:16:19.983Z,99371.91
2023-02-05T20:18:47.514Z,99373.00
2023-02-05T20:21:18.532Z,99365.19
2023-02-05T20:23:45.929Z,99373.56
2023-02-05T20:26:14.398Z,99371.97
2023-02-05T20:29:00.636Z,99381.19
2023-02-05T20:31:35.213Z,99385.47
2023-02-05T20:34:04.380Z,99393.16
2023-02-05T20:36:32.558Z,99392.44
2023-02-05T20:39:05.831Z,99397.47
2023-02-05T20:41:33.370Z,99407.00
2023-02-05T20:43:59.978Z,99413.22
2023-02-05T20:46:26.737Z,99398.00
2023-02-05T20:48:53.361Z,99416.03
2023-02-05T20:51:22.729Z,99418.47
2023-02-05T20:53:49.919Z,99414.94
2023-02-05T20:56:19.671Z,99416.66
2023-02-05T20:58:47.493Z,99418.59
2023-02-05T21:01:17.327Z,99430.69
2023-02-05T21:03:45.881Z,99428.44
2023-02-05T21:06:13.558Z,99432.28
2023-02-05T21:08:45.507Z,99439.69
2023-02-05T21:11:13.946Z,99447.38
2023-02-05T21:13:41.546Z,99446.88
2023-02-05T21:16:09.185Z,99450.06
2023-02-05T21:18:36.273Z,99453.94
2023-02-05T21:21:15.097Z,99459.50
2023-02-05T21:23:43.182Z,99456.06
2023-02-05T21:26:18.471Z,99446.94
2023-02-05T21:28:46.542Z,99453.94
2023-02-05T21:31:13.260Z,99465.84
2023-02-05T21:33:39.972Z,99469.69
2023-02-05T21:36:10.618Z,99477.63
2023-02-05T21:38:39.574Z,99492.94
2023-02-05T21:41:11.709Z,99493.38
2023-02-05T21:43:38.648Z,99498.00
2023-02-05T21:46:08.243Z,99498.97
2023-02-05T21:48:35.571Z,99499.28
2023-02-05T21:51:11.105Z,99496.69
2023-02-05T21:53:37.732Z,99501.84
2023-02-05T21:56:06.508Z,99503.34
2023-02-05T21:58:34.800Z,99504.00
2023-02-05T22:01:19.647Z,99508.19
2023-02-05T22:03:54.684Z,99513.97
2023-02-05T22:06:22.909Z,99510.97
2023-02-05T22:08:50.930Z,99507.00
2023-02-05T22:11:20.091Z,99508.56
2023-02-05T22:13:49.167Z,99513.91
2023-02-05T22:16:24.461Z,99522.13
2023-02-05T22:18:52.018Z,99524.63
2023-02-05T22:21:24.105Z,99534.59
2023-02-05T22:23:53.395Z,99540.78
2023-02-05T22:26:22.887Z,99552.16
2023-02-05T22:28:50.131Z,99543.63
2023-02-05T22:31:19.034Z,99550.75
2023-02-05T22:33:47.504Z,99540.56
2023-02-05T22:36:16.054Z,99540.13
2023-02-05T22:38:42.961Z,99539.72
2023-02-05T22:41:11.647Z,99549.16
2023-02-05T22:43:39.052Z,99548.41
2023-02-05T22:46:16.707Z,99545.94
2023-02-05T22:48:46.690Z,99540.84
2023-02-05T22:51:15.811Z,99547.59
2023-02-05T22:53:42.668Z,99539.66
2023-02-05T22:56:11.865Z,99537.78
2023-02-05T22:58:41.317Z,99544.47
2023-02-05T23:01:21.692Z,99549.81
2023-02-05T23:03:50.754Z,99553.78
2023-02-05T23:06:28.928Z,99549.16
2023-02-05T23:09:01.025Z,99557.38
2023-02-05T23:11:29.898Z,99553.19
2023-02-05T23:13:57.533Z,99551.94
2023-02-05T23:16:30.397Z,99558.06
2023-02-05T23:19:00.276Z,99556.53
2023-02-05T23:21:29.415Z,99565.41
2023-02-05T23:23:56.146Z,99557.03
2023-02-05T23:26:28.806Z,99558.75
2023-02-05T23:28:56.224Z,99559.47
2023-02-05T23:31:24.754Z,99559.22
2023-02-05T23:33:52.489Z,99559.38
2023-02-05T23:36:19.420Z,99554.69
2023-02-05T23:38:46.538Z,99553.19
2023-02-05T23:41:13.455Z,99543.25
2023-02-05T23:43:40.583Z,99555.97
2023-02-05T23:46:07.870Z,99561.63
2023-02-05T23:48:34.860Z,99569.25
2023-02-05T23:51:01.548Z,99558.19
2023-02-05T23:53:28.291Z,99569.56
2023-02-05T23:55:54.967Z,99571.66
2023-02-05T23:58:25.686Z,99570.75
